sensor_id;sensor_type;location;lat;lon;timestamp;pressure;altitude;pressure_sealevel;temperature;humidity
75699;BME280;64313;51.018;13.742;2023-11-18T00:01:03;100218.50;;;4.95;71.88
75699;BME280;64313;51.018;13.742;2023-11-18T00:03:28;100222.16;;;4.94;71.83
75699;BME280;64313;51.018;13.742;2023-11-18T00:05:53;100225.78;;;4.93;71.87
75699;BME280;64313;51.018;13.742;2023-11-18T00:08:19;100223.16;;;4.93;71.98
75699;BME280;64313;51.018;13.742;2023-11-18T00:10:45;100230.25;;;4.93;71.79
75699;BME280;64313;51.018;13.742;2023-11-18T00:13:10;100240.00;;;4.92;72.30
75699;BME280;64313;51.018;13.742;2023-11-18T00:15:35;100242.81;;;4.91;71.78
75699;BME280;64313;51.018;13.742;2023-11-18T00:18:01;100254.38;;;4.89;72.03
75699;BME280;64313;51.018;13.742;2023-11-18T00:20:26;100250.03;;;4.88;71.22
75699;BME280;64313;51.018;13.742;2023-11-18T00:22:51;100255.50;;;4.87;71.73
75699;BME280;64313;51.018;13.742;2023-11-18T00:25:18;100259.13;;;4.86;71.69
75699;BME280;64313;51.018;13.742;2023-11-18T00:27:43;100265.06;;;4.88;71.54
75699;BME280;64313;51.018;13.742;2023-11-18T00:30:09;100265.41;;;4.85;72.34
75699;BME280;64313;51.018;13.742;2023-11-18T00:32:36;100274.16;;;4.85;72.03
75699;BME280;64313;51.018;13.742;2023-11-18T00:35:02;100274.31;;;4.84;71.93
75699;BME280;64313;51.018;13.742;2023-11-18T00:37:30;100280.72;;;4.81;71.26
75699;BME280;64313;51.018;13.742;2023-11-18T00:39:56;100290.31;;;4.82;71.73
75699;BME280;64313;51.018;13.742;2023-11-18T00:42:22;100285.03;;;4.82;71.42
75699;BME280;64313;51.018;13.742;2023-11-18T00:44:47;100277.59;;;4.78;71.51
75699;BME280;64313;51.018;13.742;2023-11-18T00:47:12;100289.81;;;4.79;71.48
75699;BME280;64313;51.018;13.742;2023-11-18T00:49:38;100284.69;;;4.77;71.82
75699;BME280;64313;51.018;13.742;2023-11-18T00:52:03;100283.84;;;4.77;71.73
75699;BME280;64313;51.018;13.742;2023-11-18T00:54:28;100296.38;;;4.75;71.56
75699;BME280;64313;51.018;13.742;2023-11-18T00:56:54;100293.06;;;4.73;71.92
75699;BME280;64313;51.018;13.742;2023-11-18T00:59:19;100293.22;;;4.71;72.24
75699;BME280;64313;51.018;13.742;2023-11-18T01:01:45;100290.72;;;4.70;72.73
75699;BME280;64313;51.018;13.742;2023-11-18T01:04:10;100297.16;;;4.67;72.07
75699;BME280;64313;51.018;13.742;2023-11-18T01:06:36;100293.69;;;4.67;72.77
75699;BME280;64313;51.018;13.742;2023-11-18T01:09:02;100298.97;;;4.67;72.47
75699;BME280;64313;51.018;13.742;2023-11-18T01:11:27;100298.97;;;4.67;72.85
75699;BME280;64313;51.018;13.742;2023-11-18T01:13:52;100300.94;;;4.65;72.74
75699;BME280;64313;51.018;13.742;2023-11-18T01:16:20;100298.44;;;4.63;72.59
75699;BME280;64313;51.018;13.742;2023-11-18T01:18:45;100301.91;;;4.63;72.53
75699;BME280;64313;51.018;13.742;2023-11-18T01:21:11;100303.06;;;4.61;72.27
75699;BME280;64313;51.018;13.742;2023-11-18T01:23:37;100311.81;;;4.61;72.86
75699;BME280;64313;51.018;13.742;2023-11-18T01:26:05;100305.69;;;4.61;72.02
75699;BME280;64313;51.018;13.742;2023-11-18T01:28:34;100306.84;;;4.58;72.73
75699;BME280;64313;51.018;13.742;2023-11-18T01:31:03;100309.50;;;4.58;72.61
75699;BME280;64313;51.018;13.742;2023-11-18T01:33:29;100308.66;;;4.58;72.66
75699;BME280;64313;51.018;13.742;2023-11-18T01:35:54;100313.94;;;4.58;72.31
75699;BME280;64313;51.018;13.742;2023-11-18T01:38:20;100322.00;;;4.56;72.37
75699;BME280;64313;51.018;13.742;2023-11-18T01:40:45;100322.00;;;4.56;72.74
75699;BME280;64313;51.018;13.742;2023-11-18T01:43:11;100318.69;;;4.54;73.16
75699;BME280;64313;51.018;13.742;2023-11-18T01:45:39;100325.63;;;4.55;72.23
75699;BME280;64313;51.018;13.742;2023-11-18T01:48:06;100316.22;;;4.53;72.13
75699;BME280;64313;51.018;13.742;2023-11-18T01:50:33;100320.66;;;4.52;73.01
75699;BME280;64313;51.018;13.742;2023-11-18T01:52:58;100325.94;;;4.52;72.13
75699;BME280;64313;51.018;13.742;2023-11-18T01:55:26;100337.34;;;4.53;72.33
75699;BME280;64313;51.018;13.742;2023-11-18T01:57:53;100329.59;;;4.51;73.08
75699;BME280;64313;51.018;13.742;2023-11-18T02:00:18;100335.53;;;4.53;72.35
75699;BME280;64313;51.018;13.742;2023-11-18T02:02:43;100328.75;;;4.51;72.21
75699;BME280;64313;51.018;13.742;2023-11-18T02:05:09;100331.25;;;4.52;72.10
75699;BME280;64313;51.018;13.742;2023-11-18T02:07:38;100338.16;;;4.53;72.97
75699;BME280;64313;51.018;13.742;2023-11-18T02:10:04;100334.72;;;4.53;72.86
75699;BME280;64313;51.018;13.742;2023-11-18T02:12:43;100338.16;;;4.53;72.70
75699;BME280;64313;51.018;13.742;2023-11-18T02:15:10;100344.28;;;4.54;72.81
75699;BME280;64313;51.018;13.742;2023-11-18T02:17:38;100341.63;;;4.54;72.48
75699;BME280;64313;51.018;13.742;2023-11-18T02:20:05;100351.38;;;4.53;72.87
75699;BME280;64313;51.018;13.742;2023-11-18T02:22:45;100340.16;;;4.51;72.51
75699;BME280;64313;51.018;13.742;2023-11-18T02:25:17;100345.28;;;4.53;72.69
75699;BME280;64313;51.018;13.742;2023-11-18T02:27:44;100338.34;;;4.52;73.32
75699;BME280;64313;51.018;13.742;2023-11-18T02:30:12;100340.16;;;4.51;72.29
75699;BME280;64313;51.018;13.742;2023-11-18T02:35:25;100343.75;;;4.50;72.79
75699;BME280;64313;51.018;13.742;2023-11-18T02:37:53;100353.66;;;4.48;72.79
75699;BME280;64313;51.018;13.742;2023-11-18T02:40:27;100360.75;;;4.48;73.31
75699;BME280;64313;51.018;13.742;2023-11-18T02:42:57;100357.09;;;4.49;73.84
75699;BME280;64313;51.018;13.742;2023-11-18T02:45:24;100350.19;;;4.48;73.20
75699;BME280;64313;51.018;13.742;2023-11-18T02:47:49;100354.63;;;4.47;73.38
75699;BME280;64313;51.018;13.742;2023-11-18T02:50:15;100350.34;;;4.46;72.97
75699;BME280;64313;51.018;13.742;2023-11-18T02:52:40;100356.44;;;4.47;72.93
75699;BME280;64313;51.018;13.742;2023-11-18T02:55:06;100343.91;;;4.49;73.56
75699;BME280;64313;51.018;13.742;2023-11-18T02:57:35;100342.25;;;4.48;73.30
75699;BME280;64313;51.018;13.742;2023-11-18T03:00:01;100351.00;;;4.48;73.47
75699;BME280;64313;51.018;13.742;2023-11-18T03:02:29;100353.66;;;4.48;73.14
75699;BME280;64313;51.018;13.742;2023-11-18T03:04:58;100362.56;;;4.47;73.92
75699;BME280;64313;51.018;13.742;2023-11-18T03:07:23;100366.84;;;4.48;73.73
75699;BME280;64313;51.018;13.742;2023-11-18T03:09:49;100359.75;;;4.49;73.62
75699;BME280;64313;51.018;13.742;2023-11-18T03:12:14;100373.78;;;4.49;73.66
75699;BME280;64313;51.018;13.742;2023-11-18T03:14:40;100365.19;;;4.47;73.79
75699;BME280;64313;51.018;13.742;2023-11-18T03:17:05;100367.84;;;4.47;73.10
75699;BME280;64313;51.018;13.742;2023-11-18T03:19:35;100359.09;;;4.47;73.43
75699;BME280;64313;51.018;13.742;2023-11-18T03:22:01;100364.53;;;4.45;73.77
75699;BME280;64313;51.018;13.742;2023-11-18T03:24:27;100362.00;;;4.44;73.62
75699;BME280;64313;51.018;13.742;2023-11-18T03:26:54;100366.47;;;4.43;73.34
75699;BME280;64313;51.018;13.742;2023-11-18T03:29:19;100364.81;;;4.42;73.16
75699;BME280;64313;51.018;13.742;2023-11-18T03:31:44;100371.91;;;4.42;73.47
75699;BME280;64313;51.018;13.742;2023-11-18T03:34:13;100373.56;;;4.43;73.47
75699;BME280;64313;51.018;13.742;2023-11-18T03:36:39;100377.84;;;4.44;73.84
75699;BME280;64313;51.018;13.742;2023-11-18T03:39:04;100373.28;;;4.46;73.64
75699;BME280;64313;51.018;13.742;2023-11-18T03:41:31;100378.56;;;4.46;73.70
75699;BME280;64313;51.018;13.742;2023-11-18T03:43:56;100377.56;;;4.47;74.10
75699;BME280;64313;51.018;13.742;2023-11-18T03:46:22;100373.28;;;4.46;73.35
75699;BME280;64313;51.018;13.742;2023-11-18T03:48:47;100381.19;;;4.46;74.27
75699;BME280;64313;51.018;13.742;2023-11-18T03:51:13;100390.94;;;4.45;73.51
75699;BME280;64313;51.018;13.742;2023-11-18T03:53:39;100390.94;;;4.45;74.33
75699;BME280;64313;51.018;13.742;2023-11-18T03:56:04;100391.75;;;4.46;74.00
75699;BME280;64313;51.018;13.742;2023-11-18T03:58:30;100385.66;;;4.45;73.72
75699;BME280;64313;51.018;13.742;2023-11-18T04:00:57;100384.13;;;4.43;74.08
75699;BME280;64313;51.018;13.742;2023-11-18T04:03:23;100374.41;;;4.43;74.15
75699;BME280;64313;51.018;13.742;2023-11-18T04:05:48;100389.41;;;4.43;74.49
75699;BME280;64313;51.018;13.742;2023-11-18T04:08:13;100384.97;;;4.43;74.00
75699;BME280;64313;51.018;13.742;2023-11-18T04:10:39;100380.00;;;4.40;74.18
75699;BME280;64313;51.018;13.742;2023-11-18T04:13:04;100384.28;;;4.41;73.30
75699;BME280;64313;51.018;13.742;2023-11-18T04:15:29;100396.66;;;4.41;73.46
75699;BME280;64313;51.018;13.742;2023-11-18T04:17:55;100385.28;;;4.40;73.73
75699;BME280;64313;51.018;13.742;2023-11-18T04:20:20;100395.00;;;4.40;73.92
75699;BME280;64313;51.018;13.742;2023-11-18T04:22:46;100396.81;;;4.39;73.86
75699;BME280;64313;51.018;13.742;2023-11-18T04:25:12;100391.53;;;4.39;74.07
75699;BME280;64313;51.018;13.742;2023-11-18T04:27:38;100399.47;;;4.39;74.36
75699;BME280;64313;51.018;13.742;2023-11-18T04:30:04;100397.81;;;4.38;73.62
75699;BME280;64313;51.018;13.742;2023-11-18T04:32:30;100394.31;;;4.38;73.17
75699;BME280;64313;51.018;13.742;2023-11-18T04:34:58;100389.19;;;4.36;73.74
75699;BME280;64313;51.018;13.742;2023-11-18T04:37:25;100397.09;;;4.36;73.88
75699;BME280;64313;51.018;13.742;2023-11-18T04:39:50;100396.94;;;4.38;74.05
75699;BME280;64313;51.018;13.742;2023-11-18T04:42:15;100397.94;;;4.37;73.64
75699;BME280;64313;51.018;13.742;2023-11-18T04:44:41;100400.56;;;4.37;73.85
75699;BME280;64313;51.018;13.742;2023-11-18T04:47:06;100399.59;;;4.38;73.08
75699;BME280;64313;51.018;13.742;2023-11-18T04:49:31;100401.41;;;4.37;74.60
75699;BME280;64313;51.018;13.742;2023-11-18T04:51:57;100399.75;;;4.36;73.94
75699;BME280;64313;51.018;13.742;2023-11-18T04:54:24;100407.66;;;4.36;73.50
75699;BME280;64313;51.018;13.742;2023-11-18T04:56:49;100412.13;;;4.35;74.05
75699;BME280;64313;51.018;13.742;2023-11-18T04:59:15;100404.34;;;4.34;73.81
75699;BME280;64313;51.018;13.742;2023-11-18T05:01:40;100406.00;;;4.35;74.07
75699;BME280;64313;51.018;13.742;2023-11-18T05:04:05;100411.28;;;4.35;73.78
75699;BME280;64313;51.018;13.742;2023-11-18T05:06:33;100406.16;;;4.33;74.41
75699;BME280;64313;51.018;13.742;2023-11-18T05:08:58;100406.00;;;4.35;74.43
75699;BME280;64313;51.018;13.742;2023-11-18T05:11:24;100408.81;;;4.33;74.17
75699;BME280;64313;51.018;13.742;2023-11-18T05:13:49;100414.09;;;4.33;74.76
75699;BME280;64313;51.018;13.742;2023-11-18T05:16:14;100415.91;;;4.33;74.99
75699;BME280;64313;51.018;13.742;2023-11-18T05:18:40;100414.91;;;4.34;74.80
75699;BME280;64313;51.018;13.742;2023-11-18T05:21:06;100416.88;;;4.32;74.20
75699;BME280;64313;51.018;13.742;2023-11-18T05:23:31;100411.63;;;4.32;74.62
75699;BME280;64313;51.018;13.742;2023-11-18T05:25:58;100417.84;;;4.31;74.81
75699;BME280;64313;51.018;13.742;2023-11-18T05:28:24;100412.44;;;4.32;74.67
75699;BME280;64313;51.018;13.742;2023-11-18T05:30:50;100412.44;;;4.32;74.25
75699;BME280;64313;51.018;13.742;2023-11-18T05:33:16;100417.72;;;4.32;74.36
75699;BME280;64313;51.018;13.742;2023-11-18T05:35:46;100415.06;;;4.32;74.74
75699;BME280;64313;51.018;13.742;2023-11-18T05:38:15;100411.63;;;4.32;74.76
75699;BME280;64313;51.018;13.742;2023-11-18T05:40:44;100427.44;;;4.32;74.38
75699;BME280;64313;51.018;13.742;2023-11-18T05:43:19;100423.00;;;4.32;74.57
75699;BME280;64313;51.018;13.742;2023-11-18T05:45:46;100420.34;;;4.32;74.28
75699;BME280;64313;51.018;13.742;2023-11-18T05:48:31;100418.81;;;4.30;75.28
75699;BME280;64313;51.018;13.742;2023-11-18T05:50:57;100428.28;;;4.32;74.91
75699;BME280;64313;51.018;13.742;2023-11-18T05:53:22;100423.13;;;4.31;74.73
75699;BME280;64313;51.018;13.742;2023-11-18T05:55:47;100438.13;;;4.30;74.56
75699;BME280;64313;51.018;13.742;2023-11-18T05:58:13;100440.94;;;4.29;74.93
75699;BME280;64313;51.018;13.742;2023-11-18T06:00:38;100434.66;;;4.30;75.03
75699;BME280;64313;51.018;13.742;2023-11-18T06:03:03;100429.38;;;4.30;74.83
75699;BME280;64313;51.018;13.742;2023-11-18T06:05:29;100444.25;;;4.31;75.48
75699;BME280;64313;51.018;13.742;2023-11-18T06:07:56;100438.97;;;4.31;75.03
75699;BME280;64313;51.018;13.742;2023-11-18T06:10:24;100435.50;;;4.30;75.36
75699;BME280;64313;51.018;13.742;2023-11-18T06:12:49;100446.88;;;4.31;75.18
75699;BME280;64313;51.018;13.742;2023-11-18T06:15:15;100443.28;;;4.32;75.79
75699;BME280;64313;51.018;13.742;2023-11-18T06:17:44;100443.41;;;4.30;75.69
75699;BME280;64313;51.018;13.742;2023-11-18T06:20:09;100448.69;;;4.30;75.52
75699;BME280;64313;51.018;13.742;2023-11-18T06:22:35;100447.72;;;4.31;76.42
75699;BME280;64313;51.018;13.742;2023-11-18T06:25:01;100446.06;;;4.30;76.83
75699;BME280;64313;51.018;13.742;2023-11-18T06:27:27;100455.78;;;4.30;77.21
75699;BME280;64313;51.018;13.742;2023-11-18T06:29:53;100457.59;;;4.29;76.75
75699;BME280;64313;51.018;13.742;2023-11-18T06:32:20;100458.59;;;4.28;76.84
75699;BME280;64313;51.018;13.742;2023-11-18T06:34:45;100461.06;;;4.30;77.08
75699;BME280;64313;51.018;13.742;2023-11-18T06:37:10;100457.59;;;4.29;76.44
75699;BME280;64313;51.018;13.742;2023-11-18T06:39:41;100461.91;;;4.30;76.48
75699;BME280;64313;51.018;13.742;2023-11-18T06:42:09;100466.34;;;4.30;76.99
75699;BME280;64313;51.018;13.742;2023-11-18T06:44:37;100470.81;;;4.29;76.80
75699;BME280;64313;51.018;13.742;2023-11-18T06:47:02;100470.66;;;4.31;77.85
75699;BME280;64313;51.018;13.742;2023-11-18T06:49:30;100467.06;;;4.32;77.80
75699;BME280;64313;51.018;13.742;2023-11-18T06:51:59;100472.34;;;4.32;77.87
75699;BME280;64313;51.018;13.742;2023-11-18T06:54:28;100475.94;;;4.31;77.94
75699;BME280;64313;51.018;13.742;2023-11-18T06:56:53;100468.84;;;4.31;77.30
75699;BME280;64313;51.018;13.742;2023-11-18T06:59:19;100472.34;;;4.32;77.33
75699;BME280;64313;51.018;13.742;2023-11-18T07:01:44;100474.97;;;4.32;77.50
75699;BME280;64313;51.018;13.742;2023-11-18T07:04:10;100479.41;;;4.31;77.93
75699;BME280;64313;51.018;13.742;2023-11-18T07:06:36;100481.22;;;4.31;78.06
75699;BME280;64313;51.018;13.742;2023-11-18T07:09:04;100478.56;;;4.31;78.02
75699;BME280;64313;51.018;13.742;2023-11-18T07:11:34;100477.75;;;4.30;77.33
75699;BME280;64313;51.018;13.742;2023-11-18T07:14:00;100479.56;;;4.30;78.22
75699;BME280;64313;51.018;13.742;2023-11-18T07:16:25;100479.41;;;4.31;77.71
75699;BME280;64313;51.018;13.742;2023-11-18T07:18:51;100476.63;;;4.33;77.93
75699;BME280;64313;51.018;13.742;2023-11-18T07:21:16;100483.56;;;4.34;77.10
75699;BME280;64313;51.018;13.742;2023-11-18T07:23:42;100489.84;;;4.33;77.78
75699;BME280;64313;51.018;13.742;2023-11-18T07:26:08;100479.28;;;4.33;77.80
75699;BME280;64313;51.018;13.742;2023-11-18T07:28:35;100484.56;;;4.33;77.70
75699;BME280;64313;51.018;13.742;2023-11-18T07:31:01;100486.50;;;4.31;77.94
75699;BME280;64313;51.018;13.742;2023-11-18T07:33:30;100488.31;;;4.30;77.88
75699;BME280;64313;51.018;13.742;2023-11-18T07:35:57;100484.00;;;4.29;77.36
75699;BME280;64313;51.018;13.742;2023-11-18T07:38:23;100497.88;;;4.31;77.93
75699;BME280;64313;51.018;13.742;2023-11-18T07:40:48;100490.81;;;4.32;77.82
75699;BME280;64313;51.018;13.742;2023-11-18T07:43:14;100495.13;;;4.33;77.95
75699;BME280;64313;51.018;13.742;2023-11-18T07:45:40;100498.59;;;4.33;77.66
75699;BME280;64313;51.018;13.742;2023-11-18T07:48:08;100494.13;;;4.34;78.15
75699;BME280;64313;51.018;13.742;2023-11-18T07:50:35;100493.16;;;4.35;77.81
75699;BME280;64313;51.018;13.742;2023-11-18T07:53:00;100505.22;;;4.38;77.62
75699;BME280;64313;51.018;13.742;2023-11-18T07:55:26;100501.47;;;4.40;77.92
75699;BME280;64313;51.018;13.742;2023-11-18T07:57:51;100508.25;;;4.43;78.44
75699;BME280;64313;51.018;13.742;2023-11-18T08:00:17;100511.44;;;4.46;77.79
75699;BME280;64313;51.018;13.742;2023-11-18T08:02:42;100514.75;;;4.48;78.03
75699;BME280;64313;51.018;13.742;2023-11-18T08:05:09;100515.59;;;4.49;77.43
75699;BME280;64313;51.018;13.742;2023-11-18T08:07:39;100514.47;;;4.51;77.34
75699;BME280;64313;51.018;13.742;2023-11-18T08:10:05;100526.69;;;4.52;77.79
75699;BME280;64313;51.018;13.742;2023-11-18T08:12:32;100533.63;;;4.53;78.20
75699;BME280;64313;51.018;13.742;2023-11-18T08:14:59;100533.31;;;4.56;78.71
75699;BME280;64313;51.018;13.742;2023-11-18T08:17:25;100524.44;;;4.57;77.78
75699;BME280;64313;51.018;13.742;2023-11-18T08:19:51;100531.38;;;4.58;77.36
75699;BME280;64313;51.018;13.742;2023-11-18T08:22:17;100531.91;;;4.62;77.77
75699;BME280;64313;51.018;13.742;2023-11-18T08:24:44;100534.38;;;4.63;77.27
75699;BME280;64313;51.018;13.742;2023-11-18T08:27:10;100536.06;;;4.65;77.66
75699;BME280;64313;51.018;13.742;2023-11-18T08:29:36;100547.47;;;4.65;77.57
75699;BME280;64313;51.018;13.742;2023-11-18T08:32:03;100543.84;;;4.66;77.43
75699;BME280;64313;51.018;13.742;2023-11-18T08:34:29;100545.50;;;4.67;76.87
75699;BME280;64313;51.018;13.742;2023-11-18T08:36:54;100549.78;;;4.68;77.27
75699;BME280;64313;51.018;13.742;2023-11-18T08:39:19;100545.22;;;4.70;77.33
75699;BME280;64313;51.018;13.742;2023-11-18T08:41:46;100552.28;;;4.70;77.17
75699;BME280;64313;51.018;13.742;2023-11-18T08:44:11;100556.47;;;4.72;76.21
75699;BME280;64313;51.018;13.742;2023-11-18T08:46:38;100559.94;;;4.73;76.60
75699;BME280;64313;51.018;13.742;2023-11-18T08:49:04;100559.09;;;4.72;77.22
75699;BME280;64313;51.018;13.742;2023-11-18T08:51:37;100559.09;;;4.72;77.11
75699;BME280;64313;51.018;13.742;2023-11-18T08:54:02;100566.72;;;4.75;76.98
75699;BME280;64313;51.018;13.742;2023-11-18T08:56:50;100559.50;;;4.77;76.49
75699;BME280;64313;51.018;13.742;2023-11-18T08:59:20;100563.78;;;4.78;76.42
75699;BME280;64313;51.018;13.742;2023-11-18T09:01:59;100571.56;;;4.80;76.59
75699;BME280;64313;51.018;13.742;2023-11-18T09:04:25;100567.78;;;4.82;76.87
75699;BME280;64313;51.018;13.742;2023-11-18T09:06:53;100562.38;;;4.84;77.32
75699;BME280;64313;51.018;13.742;2023-11-18T09:09:22;100556.91;;;4.85;76.81
75699;BME280;64313;51.018;13.742;2023-11-18T09:11:54;100570.13;;;4.85;76.37
75699;BME280;64313;51.018;13.742;2023-11-18T09:14:22;100569.97;;;4.87;76.64
75699;BME280;64313;51.018;13.742;2023-11-18T09:16:50;100570.66;;;4.89;76.66
75699;BME280;64313;51.018;13.742;2023-11-18T09:19:15;100573.16;;;4.91;76.15
75699;BME280;64313;51.018;13.742;2023-11-18T09:21:42;100564.91;;;4.94;76.80
75699;BME280;64313;51.018;13.742;2023-11-18T09:24:07;100577.84;;;4.97;77.10
75699;BME280;64313;51.018;13.742;2023-11-18T09:26:33;100581.16;;;4.99;75.91
75699;BME280;64313;51.018;13.742;2023-11-18T09:28:58;100588.94;;;5.00;75.47
75699;BME280;64313;51.018;13.742;2023-11-18T09:31:26;100581.56;;;5.04;75.19
75699;BME280;64313;51.018;13.742;2023-11-18T09:33:52;100575.13;;;5.06;75.93
75699;BME280;64313;51.018;13.742;2023-11-18T09:36:19;100569.66;;;5.08;75.17
75699;BME280;64313;51.018;13.742;2023-11-18T09:38:44;100574.69;;;5.11;75.65
75699;BME280;64313;51.018;13.742;2023-11-18T09:41:13;100578.00;;;5.13;75.40
75699;BME280;64313;51.018;13.742;2023-11-18T09:43:40;100563.66;;;5.15;75.55
75699;BME280;64313;51.018;13.742;2023-11-18T09:46:10;100567.63;;;5.20;75.33
75699;BME280;64313;51.018;13.742;2023-11-18T09:48:46;100560.41;;;5.22;74.45
75699;BME280;64313;51.018;13.742;2023-11-18T09:51:28;100559.25;;;5.24;74.71
75699;BME280;64313;51.018;13.742;2023-11-18T09:54:00;100558.09;;;5.27;74.15
75699;BME280;64313;51.018;13.742;2023-11-18T09:59:16;100556.84;;;5.31;73.83
75699;BME280;64313;51.018;13.742;2023-11-18T10:01:50;100566.25;;;5.33;73.22
75699;BME280;64313;51.018;13.742;2023-11-18T10:04:19;100566.13;;;5.35;73.34
75699;BME280;64313;51.018;13.742;2023-11-18T10:06:46;100573.75;;;5.38;73.04
75699;BME280;64313;51.018;13.742;2023-11-18T10:09:12;100569.94;;;5.40;72.68
75699;BME280;64313;51.018;13.742;2023-11-18T10:11:47;100562.56;;;5.44;72.94
75699;BME280;64313;51.018;13.742;2023-11-18T10:14:16;100560.75;;;5.44;71.87
75699;BME280;64313;51.018;13.742;2023-11-18T10:16:43;100556.81;;;5.49;72.16
75699;BME280;64313;51.018;13.742;2023-11-18T10:19:12;100563.44;;;5.53;71.71
75699;BME280;64313;51.018;13.742;2023-11-18T10:21:37;100556.03;;;5.56;72.94
75699;BME280;64313;51.018;13.742;2023-11-18T10:24:06;100559.06;;;5.61;70.09
75699;BME280;64313;51.018;13.742;2023-11-18T10:26:46;100558.56;;;5.66;69.81
75699;BME280;64313;51.018;13.742;2023-11-18T10:29:11;100567.72;;;5.71;69.36
75699;BME280;64313;51.018;13.742;2023-11-18T10:31:39;100561.28;;;5.74;67.90
75699;BME280;64313;51.018;13.742;2023-11-18T10:34:12;100551.19;;;5.78;68.31
75699;BME280;64313;51.018;13.742;2023-11-18T10:36:37;100558.84;;;5.81;67.87
75699;BME280;64313;51.018;13.742;2023-11-18T10:39:10;100572.75;;;5.83;68.13
75699;BME280;64313;51.018;13.742;2023-11-18T10:41:40;100560.34;;;5.83;67.98
75699;BME280;64313;51.018;13.742;2023-11-18T10:44:08;100561.84;;;5.86;66.47
75699;BME280;64313;51.018;13.742;2023-11-18T10:46:34;100555.56;;;5.87;65.96
75699;BME280;64313;51.018;13.742;2023-11-18T10:49:01;100560.72;;;5.88;65.00
75699;BME280;64313;51.018;13.742;2023-11-18T10:51:27;100560.53;;;5.90;64.78
75699;BME280;64313;51.018;13.742;2023-11-18T10:53:56;100551.66;;;5.91;64.21
75699;BME280;64313;51.018;13.742;2023-11-18T10:56:26;100557.63;;;5.93;64.47
75699;BME280;64313;51.018;13.742;2023-11-18T10:58:56;100554.97;;;5.93;63.74
75699;BME280;64313;51.018;13.742;2023-11-18T11:01:30;100552.00;;;5.96;63.53
75699;BME280;64313;51.018;13.742;2023-11-18T11:03:59;100546.53;;;5.97;61.65
75699;BME280;64313;51.018;13.742;2023-11-18T11:06:25;100539.97;;;6.02;63.59
75699;BME280;64313;51.018;13.742;2023-11-18T11:08:52;100537.69;;;6.07;62.38
75699;BME280;64313;51.018;13.742;2023-11-18T11:11:21;100546.94;;;6.11;61.32
75699;BME280;64313;51.018;13.742;2023-11-18T11:13:49;100541.84;;;6.17;61.17
75699;BME280;64313;51.018;13.742;2023-11-18T11:16:19;100543.72;;;6.25;62.41
75699;BME280;64313;51.018;13.742;2023-11-18T11:18:48;100541.09;;;6.33;59.32
75699;BME280;64313;51.018;13.742;2023-11-18T11:21:25;100544.59;;;6.42;59.50
75699;BME280;64313;51.018;13.742;2023-11-18T11:26:40;100551.63;;;6.59;59.96
75699;BME280;64313;51.018;13.742;2023-11-18T11:31:39;100563.75;;;6.70;58.26
75699;BME280;64313;51.018;13.742;2023-11-18T11:34:17;100554.47;;;6.74;57.87
75699;BME280;64313;51.018;13.742;2023-11-18T11:36:49;100558.44;;;6.78;56.62
75699;BME280;64313;51.018;13.742;2023-11-18T11:39:17;100555.28;;;6.83;55.71
75699;BME280;64313;51.018;13.742;2023-11-18T11:41:50;100542.38;;;6.88;55.96
75699;BME280;64313;51.018;13.742;2023-11-18T11:44:16;100543.56;;;6.93;55.89
75699;BME280;64313;51.018;13.742;2023-11-18T11:46:45;100542.25;;;6.97;55.03
75699;BME280;64313;51.018;13.742;2023-11-18T11:49:19;100538.13;;;7.03;55.86
75699;BME280;64313;51.018;13.742;2023-11-18T11:52:10;100530.47;;;7.08;55.25
75699;BME280;64313;51.018;13.742;2023-11-18T11:54:46;100540.94;;;7.10;55.14
75699;BME280;64313;51.018;13.742;2023-11-18T11:57:15;100525.69;;;7.12;54.85
75699;BME280;64313;51.018;13.742;2023-11-18T12:02:13;100530.81;;;7.13;55.57
75699;BME280;64313;51.018;13.742;2023-11-18T12:04:44;100521.38;;;7.11;54.42
75699;BME280;64313;51.018;13.742;2023-11-18T12:07:10;100511.75;;;7.10;54.62
75699;BME280;64313;51.018;13.742;2023-11-18T12:09:40;100511.91;;;7.08;55.34
75699;BME280;64313;51.018;13.742;2023-11-18T12:12:20;100518.22;;;7.07;55.80
75699;BME280;64313;51.018;13.742;2023-11-18T12:15:04;100509.78;;;7.03;55.93
75699;BME280;64313;51.018;13.742;2023-11-18T12:18:09;100512.59;;;7.02;56.62
75699;BME280;64313;51.018;13.742;2023-11-18T12:23:12;100507.09;;;6.95;54.68
75699;BME280;64313;51.018;13.742;2023-11-18T12:25:45;100506.44;;;6.93;54.26
75699;BME280;64313;51.018;13.742;2023-11-18T12:28:16;100490.69;;;6.92;54.96
75699;BME280;64313;51.018;13.742;2023-11-18T12:30:46;100501.47;;;6.90;54.99
75699;BME280;64313;51.018;13.742;2023-11-18T12:33:22;100499.81;;;6.89;56.63
75699;BME280;64313;51.018;13.742;2023-11-18T12:39:01;100489.69;;;6.85;55.77
75699;BME280;64313;51.018;13.742;2023-11-18T12:41:35;100485.72;;;6.81;54.55
75699;BME280;64313;51.018;13.742;2023-11-18T12:44:14;100501.28;;;6.75;54.63
75699;BME280;64313;51.018;13.742;2023-11-18T12:46:59;100493.66;;;6.72;56.19
75699;BME280;64313;51.018;13.742;2023-11-18T12:49:43;100487.84;;;6.69;55.35
75699;BME280;64313;51.018;13.742;2023-11-18T12:52:11;100489.00;;;6.66;55.61
75699;BME280;64313;51.018;13.742;2023-11-18T12:54:37;100479.41;;;6.65;57.26
75699;BME280;64313;51.018;13.742;2023-11-18T12:57:03;100479.72;;;6.62;56.13
75699;BME280;64313;51.018;13.742;2023-11-18T12:59:36;100468.47;;;6.60;56.20
75699;BME280;64313;51.018;13.742;2023-11-18T13:02:07;100468.63;;;6.59;57.34
75699;BME280;64313;51.018;13.742;2023-11-18T13:04:32;100466.16;;;6.57;56.89
75699;BME280;64313;51.018;13.742;2023-11-18T13:06:59;100468.28;;;6.54;55.70
75699;BME280;64313;51.018;13.742;2023-11-18T13:09:26;100474.75;;;6.51;56.23
75699;BME280;64313;51.018;13.742;2023-11-18T13:11:54;100473.25;;;6.48;56.66